KCUB Airport Information

Runway Information
Runway 13 Length 5002 ft width 75 ft
Elevation 193 ft Threshold 0 ft Heading 127
Runway 31 Length 5002 ft Width 75 ft
Elevation 179 ft Threshold 399 ft Heading 307
Airport Frequencies
Type A/D Name APP/DEP Frequency 133.4 MHZ
Type ASOS Name ASOS Frequency 119.675 MHZ
Type CLD Name CLNC DEL Frequency 124.4 MHZ
Type OPS Name MIL OPS Frequency 122.8 MHZ
Type RDO Name ANDERSON R Frequency 114.7 MHZ
Type UNIC Name CTAF/UNICO Frequency 122.8 MHZ
Airport Navaids
Airport Weather Information & NOTAM
ADDS - METARS form results

(0401 UTC 22 March 2018)
METAR text: KCUB 220353Z AUTO 31007KT 10SM CLR 06/M04 A3003 RMK AO2 SLP167 T00611039
Conditions at: KCUB (COLUMBIA-OWENS , SC, US) observed 0353 UTC 22 March 2018
Temperature: 6.1°C (43°F)
Dewpoint: -3.9°C (25°F) [RH = 49%]
Pressure (altimeter): 30.03 inches Hg (1017.0 mb)
[Sea-level pressure: 1016.7 mb]
Winds: from the NW (310 degrees) at 8 MPH (7 knots; 3.6 m/s)
Visibility: 10 or more miles (16+ km)
Ceiling: at least 12,000 feet AGL
Clouds: sky clear below 12,000 feet AGL
Weather: automated observation with no human augmentation;
there may or may not be significant weather present at this time